createdAt,value
2018-09-25T00:00:47.515Z,11.84
2018-09-25T00:03:21.864Z,11.79
2018-09-25T00:05:56.322Z,11.76
2018-09-25T00:08:30.601Z,11.68
2018-09-25T00:11:05.025Z,11.64
2018-09-25T00:13:39.425Z,11.62
2018-09-25T00:16:13.782Z,11.59
2018-09-25T00:18:48.311Z,11.57
2018-09-25T00:21:23.024Z,11.52
2018-09-25T00:23:57.336Z,11.47
2018-09-25T00:26:31.573Z,11.43
2018-09-25T00:29:05.912Z,11.40
2018-09-25T00:31:40.214Z,11.38
2018-09-25T00:34:14.708Z,11.34
2018-09-25T00:36:49.468Z,11.34
2018-09-25T00:39:23.885Z,11.31
2018-09-25T00:41:58.330Z,11.26
2018-09-25T00:44:32.701Z,11.26
2018-09-25T00:47:07.015Z,11.24
2018-09-25T00:49:41.385Z,11.21
2018-09-25T00:52:15.844Z,11.19
2018-09-25T00:54:50.092Z,11.19
2018-09-25T00:57:24.612Z,11.17
2018-09-25T00:59:58.874Z,11.13
2018-09-25T01:02:33.168Z,11.10
2018-09-25T01:05:07.545Z,11.07
2018-09-25T01:07:41.982Z,11.06
2018-09-25T01:10:16.324Z,11.06
2018-09-25T01:12:50.577Z,11.07
2018-09-25T01:15:25.045Z,11.10
2018-09-25T01:17:59.384Z,11.11
2018-09-25T01:20:33.768Z,11.11
2018-09-25T01:23:08.316Z,11.10
2018-09-25T01:25:42.615Z,11.08
2018-09-25T01:28:16.987Z,11.07
2018-09-25T01:30:51.505Z,11.04
2018-09-25T01:33:26.400Z,11.03
2018-09-25T01:36:00.980Z,11.00
2018-09-25T01:38:35.451Z,10.98
2018-09-25T01:41:09.916Z,10.96
2018-09-25T01:43:44.200Z,10.95
2018-09-25T01:46:18.682Z,10.94
2018-09-25T01:48:53.741Z,10.95
2018-09-25T01:51:28.234Z,10.93
2018-09-25T01:54:02.642Z,10.92
2018-09-25T01:56:37.118Z,10.92
2018-09-25T01:59:11.623Z,10.88
2018-09-25T02:01:46.056Z,10.86
2018-09-25T02:04:20.349Z,10.83
2018-09-25T02:06:54.882Z,10.82
2018-09-25T02:09:29.281Z,10.77
2018-09-25T02:12:03.678Z,10.76
2018-09-25T02:14:38.416Z,10.73
2018-09-25T02:17:12.967Z,10.70
2018-09-25T02:19:51.364Z,10.66
2018-09-25T02:22:26.368Z,10.63
2018-09-25T02:25:00.815Z,10.62
2018-09-25T02:27:35.299Z,10.62
2018-09-25T02:30:09.761Z,10.58
2018-09-25T02:32:44.188Z,10.55
2018-09-25T02:35:18.622Z,10.50
2018-09-25T02:37:53.208Z,10.48
2018-09-25T02:40:27.726Z,10.42
2018-09-25T02:43:02.176Z,10.37
2018-09-25T02:45:36.574Z,10.32
2018-09-25T02:48:11.102Z,10.31
2018-09-25T02:50:45.429Z,10.29
2018-09-25T02:53:19.778Z,10.26
2018-09-25T02:55:54.257Z,10.25
2018-09-25T02:58:28.621Z,10.24
2018-09-25T03:01:03.089Z,10.22
2018-09-25T03:03:37.536Z,10.23
2018-09-25T03:06:12.151Z,10.22
2018-09-25T03:08:47.219Z,10.21
2018-09-25T03:11:21.620Z,10.18
2018-09-25T03:13:55.941Z,10.14
2018-09-25T03:16:30.339Z,10.14
2018-09-25T03:19:04.737Z,10.11
2018-09-25T03:21:39.933Z,10.11
2018-09-25T03:24:14.388Z,10.10
2018-09-25T03:26:48.915Z,10.09
2018-09-25T03:29:23.377Z,10.06
2018-09-25T03:31:57.885Z,10.06
2018-09-25T03:34:32.309Z,10.07
2018-09-25T03:37:06.737Z,10.06
2018-09-25T03:39:41.632Z,10.07
2018-09-25T03:42:17.361Z,10.05
2018-09-25T03:44:51.608Z,10.03
2018-09-25T03:47:27.856Z,10.02
2018-09-25T03:50:02.096Z,9.99
2018-09-25T03:52:36.540Z,10.01
2018-09-25T03:55:10.964Z,9.99
2018-09-25T03:57:45.524Z,9.97
2018-09-25T04:00:19.925Z,9.98
2018-09-25T04:02:55.130Z,9.97
2018-09-25T04:05:29.617Z,9.95
2018-09-25T04:08:04.053Z,9.94
2018-09-25T04:10:38.486Z,9.94
2018-09-25T04:13:12.969Z,9.92
2018-09-25T04:15:47.401Z,9.88
2018-09-25T04:18:21.856Z,9.84
2018-09-25T04:20:56.367Z,9.81
2018-09-25T04:23:31.508Z,9.78
2018-09-25T04:26:05.933Z,9.78
2018-09-25T04:28:40.460Z,9.77
2018-09-25T04:31:15.279Z,9.74
2018-09-25T04:33:50.250Z,9.76
2018-09-25T04:36:25.132Z,9.77
2018-09-25T04:38:59.713Z,9.77
2018-09-25T04:41:34.606Z,9.74
2018-09-25T04:44:09.515Z,9.76
2018-09-25T04:46:44.478Z,9.76
2018-09-25T04:49:19.356Z,9.77
2018-09-25T04:51:54.260Z,9.77
2018-09-25T04:54:29.596Z,9.77
2018-09-25T04:57:04.284Z,9.76
2018-09-25T04:59:39.117Z,9.75
2018-09-25T05:02:14.237Z,9.74
2018-09-25T05:04:48.941Z,9.73
2018-09-25T05:07:23.732Z,9.71
2018-09-25T05:09:59.128Z,9.70
2018-09-25T05:12:33.496Z,9.70
2018-09-25T05:15:08.343Z,9.69
2018-09-25T05:17:43.496Z,9.68
2018-09-25T05:20:18.364Z,9.66
2018-09-25T05:22:54.506Z,9.67
2018-09-25T05:25:29.049Z,9.68
2018-09-25T05:28:03.517Z,9.67
2018-09-25T05:30:38.009Z,9.66
2018-09-25T05:33:12.715Z,9.67
2018-09-25T05:35:48.074Z,9.67
2018-09-25T05:38:22.806Z,9.68
2018-09-25T05:40:57.479Z,9.72
2018-09-25T05:43:32.012Z,9.82
2018-09-25T05:46:06.594Z,9.91
2018-09-25T05:48:41.484Z,10.08
2018-09-25T05:51:16.354Z,10.25
2018-09-25T05:53:51.145Z,10.46
2018-09-25T05:56:26.260Z,10.72
2018-09-25T05:59:00.805Z,11.04
2018-09-25T06:01:35.346Z,11.45
2018-09-25T06:04:10.169Z,11.89
2018-09-25T06:06:44.992Z,12.36
2018-09-25T06:09:19.770Z,12.82
2018-09-25T06:11:54.196Z,13.22
2018-09-25T06:14:28.754Z,13.61
2018-09-25T06:17:03.254Z,14.00
2018-09-25T06:19:38.216Z,14.38
2018-09-25T06:22:15.410Z,14.82
2018-09-25T06:24:49.967Z,15.30
2018-09-25T06:27:24.736Z,15.76
2018-09-25T06:29:59.290Z,16.32
2018-09-25T06:32:34.018Z,16.85
2018-09-25T06:35:09.017Z,17.37
2018-09-25T06:37:44.459Z,17.79
2018-09-25T06:40:18.930Z,18.14
2018-09-25T06:42:53.803Z,18.50
2018-09-25T06:45:28.240Z,18.85
2018-09-25T06:48:02.621Z,19.23
2018-09-25T06:50:36.944Z,19.57
2018-09-25T06:53:12.460Z,19.90
2018-09-25T06:55:47.233Z,20.14
2018-09-25T06:58:22.095Z,20.34
2018-09-25T07:00:56.884Z,20.52
2018-09-25T07:03:31.394Z,20.83
2018-09-25T07:06:05.975Z,21.21
2018-09-25T07:08:40.449Z,21.65
2018-09-25T07:11:14.983Z,22.15
2018-09-25T07:13:49.682Z,22.65
2018-09-25T07:16:24.320Z,23.14
2018-09-25T07:18:58.903Z,23.53
2018-09-25T07:21:33.564Z,23.80
2018-09-25T07:24:08.213Z,24.05
2018-09-25T07:26:43.109Z,24.38
2018-09-25T07:29:17.716Z,24.81
2018-09-25T07:31:52.601Z,25.41
2018-09-25T07:34:27.364Z,26.06
2018-09-25T07:37:02.069Z,26.62
2018-09-25T07:39:36.749Z,27.05
2018-09-25T07:42:11.485Z,27.41
2018-09-25T07:44:46.485Z,27.77
2018-09-25T07:47:21.549Z,28.27
2018-09-25T07:49:56.082Z,28.85
2018-09-25T07:52:30.729Z,29.45
2018-09-25T07:55:05.202Z,29.94
2018-09-25T07:57:40.141Z,30.18
2018-09-25T08:00:14.755Z,30.37
2018-09-25T08:02:49.537Z,30.62
2018-09-25T08:05:24.330Z,30.68
2018-09-25T08:07:58.844Z,30.76
2018-09-25T08:10:33.528Z,30.98
2018-09-25T08:13:08.328Z,31.34
2018-09-25T08:15:43.458Z,31.58
2018-09-25T08:18:18.281Z,31.64
2018-09-25T08:20:53.231Z,31.44
2018-09-25T08:23:27.999Z,31.17
2018-09-25T08:26:02.545Z,30.93
2018-09-25T08:28:37.267Z,30.52
2018-09-25T08:31:12.273Z,30.09
2018-09-25T08:33:47.389Z,29.82
2018-09-25T08:36:22.688Z,29.74
2018-09-25T08:38:57.269Z,29.75
2018-09-25T08:41:32.665Z,29.76
2018-09-25T08:44:07.390Z,29.81
2018-09-25T08:46:42.115Z,29.88
2018-09-25T08:49:18.343Z,29.72
2018-09-25T08:51:54.613Z,29.42
2018-09-25T08:54:29.914Z,29.13
2018-09-25T08:57:04.677Z,28.84
2018-09-25T08:59:39.624Z,28.58
2018-09-25T09:02:14.445Z,28.19
2018-09-25T09:04:49.614Z,27.78
2018-09-25T09:07:24.457Z,27.31
2018-09-25T09:09:58.969Z,26.67
2018-09-25T09:12:33.973Z,26.21
2018-09-25T09:15:11.763Z,25.95
2018-09-25T09:17:47.032Z,25.84
2018-09-25T09:20:22.047Z,25.80
2018-09-25T09:22:57.069Z,25.91
2018-09-25T09:25:32.067Z,26.22
2018-09-25T09:28:06.623Z,26.58
2018-09-25T09:30:41.233Z,26.65
2018-09-25T09:33:17.500Z,26.43
2018-09-25T09:35:52.458Z,26.14
2018-09-25T09:38:27.975Z,25.64
2018-09-25T09:41:02.688Z,25.05
2018-09-25T09:43:37.348Z,24.34
2018-09-25T09:46:11.798Z,23.98
2018-09-25T09:48:47.266Z,24.02
2018-09-25T09:51:22.536Z,24.16
2018-09-25T09:53:57.292Z,24.32
2018-09-25T09:56:32.416Z,24.56
2018-09-25T09:59:07.320Z,24.74
2018-09-25T10:01:42.590Z,24.99
2018-09-25T10:04:18.546Z,25.36
2018-09-25T10:06:53.806Z,25.87
2018-09-25T10:09:28.486Z,26.17
2018-09-25T10:12:03.589Z,25.95
2018-09-25T10:14:38.250Z,25.65
2018-09-25T10:17:13.336Z,25.69
2018-09-25T10:19:49.006Z,26.09
2018-09-25T10:22:24.237Z,26.37
2018-09-25T10:24:59.081Z,26.32
2018-09-25T10:27:34.159Z,26.19
2018-09-25T10:30:09.782Z,26.06
2018-09-25T10:32:45.002Z,25.94
2018-09-25T10:35:19.742Z,25.87
2018-09-25T10:37:54.869Z,25.72
2018-09-25T10:40:30.201Z,25.52
2018-09-25T10:43:05.824Z,25.29
2018-09-25T10:45:40.562Z,25.03
2018-09-25T10:48:15.653Z,24.92
2018-09-25T10:50:50.961Z,24.90
2018-09-25T10:53:25.965Z,24.83
2018-09-25T10:56:01.054Z,24.79
2018-09-25T10:58:37.510Z,24.70
2018-09-25T11:01:12.693Z,24.64
2018-09-25T11:03:47.509Z,24.66
2018-09-25T11:06:22.958Z,24.70
2018-09-25T11:08:58.395Z,24.82
2018-09-25T11:11:33.428Z,24.95
2018-09-25T11:14:08.184Z,24.98
2018-09-25T11:16:43.157Z,24.91
2018-09-25T11:19:18.533Z,24.82
2018-09-25T11:21:53.374Z,24.78
2018-09-25T11:24:28.248Z,24.49
2018-09-25T11:27:02.888Z,23.89
2018-09-25T11:29:38.658Z,23.19
2018-09-25T11:32:13.614Z,22.64
2018-09-25T11:34:48.761Z,22.34
2018-09-25T11:37:25.423Z,22.19
2018-09-25T11:40:01.392Z,21.93
2018-09-25T11:42:36.177Z,21.75
2018-09-25T11:45:11.499Z,21.72
2018-09-25T11:47:46.275Z,21.75
2018-09-25T11:50:21.136Z,21.82
2018-09-25T11:52:56.632Z,21.84
2018-09-25T11:55:32.450Z,21.76
2018-09-25T12:00:57.952Z,21.45
2018-09-25T12:03:33.324Z,21.32
2018-09-25T12:06:08.233Z,21.15
2018-09-25T12:08:43.953Z,21.02
2018-09-25T12:11:18.780Z,20.89
2018-09-25T12:13:53.795Z,20.81
2018-09-25T12:16:28.538Z,20.80
2018-09-25T12:19:03.069Z,20.79
2018-09-25T12:21:37.973Z,20.81
2018-09-25T12:24:13.187Z,20.76
2018-09-25T12:26:48.106Z,20.68
2018-09-25T12:29:22.823Z,20.66
2018-09-25T12:31:57.707Z,20.62
2018-09-25T12:34:32.765Z,20.54
2018-09-25T12:37:07.254Z,20.44
2018-09-25T12:39:42.150Z,20.36
2018-09-25T12:42:16.806Z,20.25
2018-09-25T12:44:51.377Z,20.17
2018-09-25T12:47:25.966Z,20.15
2018-09-25T12:50:00.572Z,20.16
2018-09-25T12:52:35.236Z,20.20
2018-09-25T12:55:10.203Z,20.26
2018-09-25T12:57:45.616Z,20.33
2018-09-25T13:00:20.216Z,20.37
2018-09-25T13:02:54.892Z,20.41
2018-09-25T13:05:29.685Z,20.42
2018-09-25T13:08:04.533Z,20.39
2018-09-25T13:10:39.514Z,20.38
2018-09-25T13:13:14.252Z,20.35
2018-09-25T13:15:49.041Z,20.31
2018-09-25T13:18:23.564Z,20.28
2018-09-25T13:20:58.163Z,20.23
2018-09-25T13:23:33.019Z,20.14
2018-09-25T13:26:07.705Z,20.07
2018-09-25T13:28:42.591Z,19.99
2018-09-25T13:31:17.606Z,19.92
2018-09-25T13:33:53.578Z,19.86
2018-09-25T13:36:28.612Z,19.89
2018-09-25T13:39:03.136Z,19.90
2018-09-25T13:41:37.940Z,19.99
2018-09-25T13:44:12.623Z,20.08
2018-09-25T13:46:47.601Z,20.10
2018-09-25T13:49:21.924Z,20.04
2018-09-25T13:51:56.773Z,19.99
2018-09-25T13:54:31.687Z,19.95
2018-09-25T13:57:06.167Z,19.94
2018-09-25T13:59:42.417Z,19.94
2018-09-25T14:02:17.483Z,19.94
2018-09-25T14:04:52.417Z,19.91
2018-09-25T14:07:27.481Z,19.84
2018-09-25T14:10:02.202Z,19.76
2018-09-25T14:12:36.668Z,19.70
2018-09-25T14:15:12.786Z,19.63
2018-09-25T14:17:48.794Z,19.59
2018-09-25T14:20:23.594Z,19.56
2018-09-25T14:22:58.033Z,19.52
2018-09-25T14:25:32.975Z,19.46
2018-09-25T14:28:07.499Z,19.39
2018-09-25T14:30:41.998Z,19.30
2018-09-25T14:33:16.603Z,19.21
2018-09-25T14:35:51.269Z,19.12
2018-09-25T14:38:26.098Z,19.07
2018-09-25T14:41:02.713Z,18.99
2018-09-25T14:43:37.494Z,18.92
2018-09-25T14:46:12.134Z,18.90
2018-09-25T14:48:47.070Z,18.86
2018-09-25T14:51:21.852Z,18.86
2018-09-25T14:53:56.710Z,18.84
2018-09-25T14:56:31.451Z,18.87
2018-09-25T14:59:06.097Z,18.87
2018-09-25T15:01:40.886Z,18.91
2018-09-25T15:04:15.699Z,18.91
2018-09-25T15:06:50.594Z,18.92
2018-09-25T15:09:25.251Z,18.89
2018-09-25T15:11:59.836Z,18.88
2018-09-25T15:14:34.334Z,18.87
2018-09-25T15:17:08.985Z,18.86
2018-09-25T15:19:43.872Z,18.86
2018-09-25T15:22:22.094Z,18.81
2018-09-25T15:24:56.199Z,18.80
2018-09-25T15:27:31.142Z,18.78
2018-09-25T15:30:07.772Z,18.73
2018-09-25T15:32:42.659Z,18.71
2018-09-25T15:35:17.564Z,18.68
2018-09-25T15:37:52.715Z,18.65
2018-09-25T15:40:27.496Z,18.65
2018-09-25T15:43:02.234Z,18.65
2018-09-25T15:45:37.311Z,18.64
2018-09-25T15:48:12.013Z,18.63
2018-09-25T15:50:47.417Z,18.62
2018-09-25T15:53:23.688Z,18.63
2018-09-25T15:55:58.876Z,18.64
2018-09-25T15:58:34.070Z,18.62
2018-09-25T16:01:08.739Z,18.59
2018-09-25T16:03:43.666Z,18.58
2018-09-25T16:06:18.457Z,18.54
2018-09-25T16:08:53.731Z,18.51
2018-09-25T16:11:28.182Z,18.50
2018-09-25T16:14:02.744Z,18.49
2018-09-25T16:16:37.564Z,18.46
2018-09-25T16:19:12.435Z,18.44
2018-09-25T16:21:47.262Z,18.41
2018-09-25T16:24:21.729Z,18.37
2018-09-25T16:26:56.525Z,18.32
2018-09-25T16:29:31.005Z,18.26
2018-09-25T16:32:05.644Z,18.23
2018-09-25T16:34:40.248Z,18.18
2018-09-25T16:37:14.819Z,18.11
2018-09-25T16:39:49.899Z,18.05
2018-09-25T16:42:24.569Z,17.98
2018-09-25T16:44:59.267Z,17.91
2018-09-25T16:47:33.974Z,17.84
2018-09-25T16:50:08.414Z,17.76
2018-09-25T16:52:42.883Z,17.68
2018-09-25T16:55:18.103Z,17.61
2018-09-25T16:57:53.612Z,17.55
2018-09-25T17:00:28.705Z,17.51
2018-09-25T17:03:03.340Z,17.42
2018-09-25T17:05:38.038Z,17.37
2018-09-25T17:08:12.406Z,17.33
2018-09-25T17:10:47.930Z,17.27
2018-09-25T17:13:22.948Z,17.21
2018-09-25T17:15:57.389Z,17.15
2018-09-25T17:18:31.997Z,17.06
2018-09-25T17:21:08.208Z,17.00
2018-09-25T17:23:42.872Z,16.92
2018-09-25T17:26:18.312Z,16.84
2018-09-25T17:28:53.254Z,16.75
2018-09-25T17:31:28.002Z,16.68
2018-09-25T17:34:02.665Z,16.61
2018-09-25T17:36:37.333Z,16.54
2018-09-25T17:39:14.872Z,16.44
2018-09-25T17:41:49.846Z,16.36
2018-09-25T17:44:25.497Z,16.27
2018-09-25T17:47:00.116Z,16.19
2018-09-25T17:49:35.025Z,16.11
2018-09-25T17:52:10.240Z,16.04
2018-09-25T17:54:45.928Z,15.96
2018-09-25T17:57:21.637Z,15.89
2018-09-25T17:59:57.059Z,15.80
2018-09-25T18:02:32.592Z,15.74
2018-09-25T18:05:09.181Z,15.66
2018-09-25T18:07:46.738Z,15.60
2018-09-25T18:10:21.940Z,15.53
2018-09-25T18:12:57.875Z,15.47
2018-09-25T18:15:32.910Z,15.42
2018-09-25T18:18:07.839Z,15.40
2018-09-25T18:20:42.550Z,15.37
2018-09-25T18:23:18.590Z,15.35
2018-09-25T18:25:53.551Z,15.29
2018-09-25T18:28:28.683Z,15.25
2018-09-25T18:31:03.447Z,15.21
2018-09-25T18:33:38.343Z,15.16
2018-09-25T18:36:14.319Z,15.08
2018-09-25T18:38:49.055Z,15.03
2018-09-25T18:41:23.830Z,14.97
2018-09-25T18:43:58.332Z,14.94
2018-09-25T18:46:32.896Z,14.86
2018-09-25T18:49:07.332Z,14.83
2018-09-25T18:51:42.235Z,14.76
2018-09-25T18:54:16.558Z,14.71
2018-09-25T18:56:51.110Z,14.65
2018-09-25T18:59:25.852Z,14.60
2018-09-25T19:04:41.761Z,14.50
2018-09-25T19:07:16.548Z,14.42
2018-09-25T19:09:50.985Z,14.35
2018-09-25T19:12:25.698Z,14.28
2018-09-25T19:15:00.184Z,14.19
2018-09-25T19:17:34.680Z,14.14
2018-09-25T19:20:09.570Z,14.10
2018-09-25T19:22:44.307Z,14.06
2018-09-25T19:25:18.690Z,14.03
2018-09-25T19:27:53.602Z,14.01
2018-09-25T19:30:28.068Z,13.98
2018-09-25T19:33:02.548Z,13.97
2018-09-25T19:35:37.297Z,13.94
2018-09-25T19:38:11.769Z,13.93
2018-09-25T19:40:46.596Z,13.91
2018-09-25T19:43:21.090Z,13.87
2018-09-25T19:45:55.505Z,13.86
2018-09-25T19:48:29.819Z,13.82
2018-09-25T19:51:04.169Z,13.79
2018-09-25T19:53:38.765Z,13.75
2018-09-25T19:56:13.280Z,13.72
2018-09-25T19:58:47.898Z,13.67
2018-09-25T20:01:22.238Z,13.66
2018-09-25T20:03:56.633Z,13.61
2018-09-25T20:06:31.036Z,13.57
2018-09-25T20:09:05.457Z,13.53
2018-09-25T20:11:39.783Z,13.48
2018-09-25T20:14:14.420Z,13.44
2018-09-25T20:16:49.078Z,13.40
2018-09-25T20:19:26.354Z,13.34
2018-09-25T20:22:05.372Z,13.29
2018-09-25T20:24:40.892Z,13.23
2018-09-25T20:27:18.216Z,13.20
2018-09-25T20:29:54.754Z,13.20
2018-09-25T20:32:29.854Z,13.17
2018-09-25T20:35:08.390Z,13.17
2018-09-25T20:37:43.831Z,13.16
2018-09-25T20:40:20.383Z,13.12
2018-09-25T20:42:55.618Z,13.13
2018-09-25T20:45:34.784Z,13.12
2018-09-25T20:48:11.586Z,13.14
2018-09-25T20:50:48.995Z,13.15
2018-09-25T20:53:26.641Z,13.13
2018-09-25T20:56:01.482Z,13.14
2018-09-25T20:58:36.319Z,13.15
2018-09-25T21:01:17.029Z,13.17
2018-09-25T21:03:52.363Z,13.20
2018-09-25T21:06:27.536Z,13.21
2018-09-25T21:09:02.973Z,13.22
2018-09-25T21:11:37.909Z,13.22
2018-09-25T21:14:13.863Z,13.21
2018-09-25T21:16:48.572Z,13.19
2018-09-25T21:19:23.482Z,13.19
2018-09-25T21:21:59.887Z,13.20
2018-09-25T21:24:35.587Z,13.18
2018-09-25T21:27:14.280Z,13.17
2018-09-25T21:29:50.621Z,13.16
2018-09-25T21:32:25.884Z,13.17
2018-09-25T21:35:04.177Z,13.16
2018-09-25T21:37:40.909Z,13.16
2018-09-25T21:40:17.930Z,13.12
2018-09-25T21:42:55.329Z,13.11
2018-09-25T21:45:31.385Z,13.09
2018-09-25T21:48:08.443Z,13.06
2018-09-25T21:50:46.581Z,13.05
2018-09-25T21:53:24.572Z,13.02
2018-09-25T21:56:05.498Z,13.01
2018-09-25T21:58:42.266Z,12.99
2018-09-25T22:01:20.228Z,12.97
2018-09-25T22:03:56.888Z,12.97
2018-09-25T22:06:33.616Z,12.97
2018-09-25T22:09:14.180Z,12.93
2018-09-25T22:11:50.774Z,12.93
2018-09-25T22:14:27.605Z,12.94
2018-09-25T22:17:04.111Z,12.91
2018-09-25T22:19:39.823Z,12.91
2018-09-25T22:22:14.965Z,12.92
2018-09-25T22:24:51.613Z,12.92
2018-09-25T22:27:26.127Z,12.94
2018-09-25T22:30:01.817Z,12.94
2018-09-25T22:32:38.241Z,12.94
2018-09-25T22:35:13.543Z,12.96
2018-09-25T22:37:51.501Z,12.95
2018-09-25T22:40:27.956Z,12.94
2018-09-25T22:43:02.623Z,12.90
2018-09-25T22:45:39.477Z,12.87
2018-09-25T22:48:18.405Z,12.86
2018-09-25T22:50:55.950Z,12.79
2018-09-25T22:53:31.140Z,12.78
2018-09-25T22:56:09.384Z,12.77
2018-09-25T22:58:44.778Z,12.76
2018-09-25T23:01:22.734Z,12.76
2018-09-25T23:04:01.163Z,12.78
2018-09-25T23:06:40.667Z,12.78
2018-09-25T23:09:17.769Z,12.80
2018-09-25T23:11:54.475Z,12.82
2018-09-25T23:14:30.227Z,12.82
2018-09-25T23:17:11.274Z,12.82
2018-09-25T23:19:51.566Z,12.82
2018-09-25T23:22:29.751Z,12.78
2018-09-25T23:25:05.592Z,12.78
2018-09-25T23:27:42.406Z,12.77
2018-09-25T23:30:19.670Z,12.77
2018-09-25T23:32:58.174Z,12.78
2018-09-25T23:35:33.336Z,12.80
2018-09-25T23:38:10.942Z,12.84
2018-09-25T23:40:47.360Z,12.86
2018-09-25T23:43:28.244Z,12.91
2018-09-25T23:46:07.175Z,12.93
2018-09-25T23:48:44.754Z,12.96
2018-09-25T23:51:33.645Z,13.00
2018-09-25T23:54:10.638Z,13.01
2018-09-25T23:57:18.395Z,13.01
